Boyes, Montana
Current Conditions -  °F | °C
As of 8:55 PM on Friday 24 Oct 2014 (Local Time) from KW43 Reporting Station
Overcast Overcast  
Wind Chill: 54°   Ceiling: 12000
Heat Index: 54°   Visibility: 10mi
Dew Point: 30°   Wind: 6mph
Humidity: 41%   Direction: 70°ENE
Pressure: 30.14"   Gusts: NA
Location:  45.27°N, 105.03°W
Report Text: KW43 250255Z AUTO 07005KT 10SM OVC120 12/M01 A3014 RMK AO2
Loading
Personal Weather Stations






























Interactive Weather Map New forecast layout! Learn more

10-Day Weather Forecast

Advertisements
Track Severe Weather on mobile